Weather at Alice International Airport

Public forecast

Using degrees Fahrenheit for public forecast. Weather courtesy of forecast.io.

Current aviation weather report (METAR) for Alice International Airport

Retrieved 2021/03/06 12:25 UTC (1 hour ago):

KALI 061225Z AUTO 32008KT 10SM BKN027 OVC043 13/07 A3019 RMK AO2 T01330072

Aviation forecast (TAF) for Alice International Airport

Retrieved 2021/03/06 12:30 UTC (58 minutes ago):

TAF KALI 061126Z 0612/0712 35012KT P6SM BKN030 TEMPO 0612/0616 BKN027 FM061600 01012G18KT P6SM SCT035 FM062200 03010KT P6SM SCT050 FM070300 VRB03KT P6SM SKC